Main page
METAR-TAF:

METAR-TAF

Airports :

Isles of Scilly, England

St Mary's Airport

latitude: 49-55N, longitude: 006-18W, elevation: 31 m

Current weather observation

The report was made 24 minutes ago, at 18:20 UTC
Wind 19 kt from the Northeast
Temperature 11°C
Humidity 71%
Pressure 1022 hPa
Visibility 10 km or more
no clouds below 1500 m and no cumulonimbus

METAR: EGHE 251820Z 04019KT CAVOK 11/06 Q1022

Time: 19:44 (18:44 UTC)


TAF: missing

Weather observations and forecasts of more than 4000 airports (METAR and TAF reports).

The available stations are represented by yellow and red dots on the map.

Hover mouse over dot to see the name of the station.

Then click to see weather observations and forecasts.

To change the map : click on the green buttons with a black cross to zoom in, on the green button with a dash to zoom out, or on the green arrows for adjacent maps.


METAR-TAF: